Terminal Aerodrome Forecast
Issued by NWS Albany, NY

Current Version | Previous Version | Text Only | Print | Product List | Glossary On
Versions: 1 2 3 4 5 6 7 8 9 10 11 12 13 14 15 16 17 18 19 20 21 22 23 24 25
000
FTUS41 KALY 051720
TAFGFL
TAF
KGFL 051720Z 0518/0618 VRB05KT P6SM SCT040
     FM060000 00000KT P6SM SKC
     FM060600 00000KT 2SM BR SCT002
     FM060800 00000KT 1/2SM FG VV002
     FM061100 00000KT 2SM BR SCT002
     FM061200 VRB05KT P6SM FEW045=

USA.gov is the U.S. government's official web portal to all federal, state and local government web resources and services.